createdAt,value
2016-09-15T04:18:54.538Z,18.89
2016-09-15T04:19:55.179Z,18.84
2016-09-15T04:20:55.808Z,18.8
2016-09-15T04:21:56.457Z,18.77
2016-09-15T04:22:57.256Z,18.83
2016-09-15T04:23:57.809Z,18.83
2016-09-15T04:24:58.462Z,18.78
2016-09-15T04:25:59.079Z,18.66
2016-09-15T04:26:59.722Z,18.7
2016-09-15T04:28:00.361Z,18.68
2016-09-15T04:29:01.001Z,18.68
2016-09-15T04:30:01.647Z,18.71
2016-09-15T04:31:02.412Z,18.6
2016-09-15T04:32:03.058Z,18.73
2016-09-15T04:33:03.706Z,18.65
2016-09-15T04:34:04.338Z,18.58
2016-09-15T04:35:04.991Z,18.62
2016-09-15T04:36:05.632Z,18.55
2016-09-15T04:37:06.271Z,18.49
2016-09-15T04:38:06.927Z,18.53
2016-09-15T04:39:07.599Z,18.44
2016-09-15T04:40:08.454Z,18.49
2016-09-15T04:41:09.756Z,18.49
2016-09-15T04:42:10.395Z,18.5
2016-09-15T04:43:11.038Z,18.47
2016-09-15T04:44:11.686Z,18.49
2016-09-15T04:45:12.305Z,18.49
2016-09-15T04:46:13.003Z,18.5
2016-09-15T04:47:13.644Z,18.49
2016-09-15T04:48:14.804Z,18.5
2016-09-15T04:49:15.499Z,18.5
2016-09-15T04:50:16.150Z,18.53
2016-09-15T04:51:16.824Z,18.5
2016-09-15T04:52:17.452Z,18.56
2016-09-15T04:53:18.085Z,18.52
2016-09-15T04:54:18.739Z,18.5
2016-09-15T04:55:19.371Z,18.5
2016-09-15T04:56:20.007Z,18.53
2016-09-15T04:57:20.658Z,18.49
2016-09-15T04:58:21.381Z,18.56
2016-09-15T04:59:22.096Z,18.53
2016-09-15T05:00:22.743Z,18.49
2016-09-15T05:01:23.396Z,18.5
2016-09-15T05:02:24.067Z,18.5
2016-09-15T05:03:24.688Z,18.5
2016-09-15T05:04:25.317Z,18.52
2016-09-15T05:05:25.961Z,18.44
2016-09-15T05:06:26.615Z,18.47
2016-09-15T05:07:27.273Z,18.49
2016-09-15T05:08:27.920Z,18.47
2016-09-15T05:09:28.583Z,18.41
2016-09-15T05:10:29.232Z,18.43
2016-09-15T05:11:29.864Z,18.41
2016-09-15T05:12:30.493Z,18.43
2016-09-15T05:13:31.181Z,18.41
2016-09-15T05:14:31.823Z,18.33
2016-09-15T05:15:32.470Z,18.35
2016-09-15T05:16:33.123Z,18.38
2016-09-15T05:17:33.765Z,18.4
2016-09-15T05:18:34.400Z,18.41
2016-09-15T05:19:35.040Z,18.4
2016-09-15T05:20:35.667Z,18.26
2016-09-15T05:21:36.341Z,18.23
2016-09-15T05:22:36.969Z,18.37
2016-09-15T05:23:37.619Z,18.37
2016-09-15T05:24:38.266Z,18.43
2016-09-15T05:25:38.900Z,18.45
2016-09-15T05:26:39.528Z,18.53
2016-09-15T05:27:40.156Z,18.49
2016-09-15T05:28:40.816Z,18.41
2016-09-15T05:29:41.448Z,18.38
2016-09-15T05:30:42.116Z,18.44
2016-09-15T05:31:42.733Z,18.44
2016-09-15T05:32:43.392Z,18.38
2016-09-15T05:33:44.039Z,18.41
2016-09-15T05:34:44.712Z,18.49
2016-09-15T05:35:45.370Z,18.47
2016-09-15T05:36:46.014Z,18.38
2016-09-15T05:37:46.670Z,18.47
2016-09-15T05:38:47.288Z,18.47
2016-09-15T05:39:47.917Z,18.47
2016-09-15T05:40:48.577Z,18.52
2016-09-15T05:41:49.221Z,18.5
2016-09-15T05:42:49.864Z,18.49
2016-09-15T05:43:50.501Z,18.45
2016-09-15T05:44:51.154Z,18.5
2016-09-15T05:45:51.786Z,18.52
2016-09-15T05:46:52.439Z,18.52
2016-09-15T05:47:53.075Z,18.56
2016-09-15T05:48:53.706Z,18.45
2016-09-15T05:49:54.364Z,18.53
2016-09-15T05:50:54.998Z,18.52
2016-09-15T05:51:55.620Z,18.5
2016-09-15T05:52:56.244Z,18.62
2016-09-15T05:53:56.877Z,18.62
2016-09-15T05:54:57.526Z,18.59
2016-09-15T05:55:58.152Z,18.65
2016-09-15T05:56:58.796Z,18.7
2016-09-15T05:57:59.468Z,18.7
2016-09-15T05:59:00.162Z,18.7
2016-09-15T06:00:00.834Z,18.81
2016-09-15T06:01:01.468Z,18.84
2016-09-15T06:02:02.137Z,18.74
2016-09-15T06:03:02.803Z,18.8
2016-09-15T06:04:03.423Z,18.86
2016-09-15T06:05:04.101Z,18.8
2016-09-15T06:06:04.762Z,18.95
2016-09-15T06:07:05.446Z,18.9
2016-09-15T06:08:06.109Z,18.89
2016-09-15T06:09:06.780Z,18.89
2016-09-15T06:10:07.419Z,18.89
2016-09-15T06:11:08.071Z,18.9
2016-09-15T06:12:08.750Z,18.95
2016-09-15T06:13:09.384Z,18.96
2016-09-15T06:14:10.032Z,19
2016-09-15T06:15:10.665Z,19.11
2016-09-15T06:16:11.314Z,19.12
2016-09-15T06:17:11.955Z,19.04
2016-09-15T06:18:12.601Z,19.19
2016-09-15T06:19:13.304Z,19.14
2016-09-15T06:20:13.963Z,19.24
2016-09-15T06:21:14.630Z,19.3
2016-09-15T06:22:15.293Z,19.33
2016-09-15T06:23:15.981Z,19.3
2016-09-15T06:24:16.597Z,19.34
2016-09-15T06:25:17.284Z,19.41
2016-09-15T06:26:17.947Z,19.37
2016-09-15T06:27:18.585Z,19.44
2016-09-15T06:28:19.253Z,19.49
2016-09-15T06:29:19.898Z,19.47
2016-09-15T06:30:20.544Z,19.47
2016-09-15T06:31:21.222Z,19.48
2016-09-15T06:32:21.867Z,19.55
2016-09-15T06:33:22.510Z,19.59
2016-09-15T06:34:23.161Z,19.63
2016-09-15T06:35:23.799Z,19.58
2016-09-15T06:36:24.456Z,19.62
2016-09-15T06:37:25.102Z,19.79
2016-09-15T06:38:25.748Z,19.74
2016-09-15T06:39:26.387Z,19.89
2016-09-15T06:40:27.042Z,20.16
2016-09-15T06:41:27.685Z,20.75
2016-09-15T06:42:28.341Z,21.27
2016-09-15T06:43:28.980Z,21.42
2016-09-15T06:44:29.624Z,21.55
2016-09-15T06:45:30.279Z,21.69
2016-09-15T06:46:30.919Z,21.91
2016-09-15T06:47:31.564Z,22.22
2016-09-15T06:48:32.247Z,22.47
2016-09-15T06:49:32.895Z,22.66
2016-09-15T06:50:33.553Z,22.43
2016-09-15T06:51:34.188Z,22.32
2016-09-15T06:52:34.824Z,22.45
2016-09-15T06:53:35.467Z,22.51
2016-09-15T06:54:36.111Z,22.84
2016-09-15T06:55:36.757Z,22.73
2016-09-15T06:56:37.423Z,23.02
2016-09-15T06:57:38.083Z,23.17
2016-09-15T06:58:38.728Z,23
2016-09-15T06:59:39.388Z,23.06
2016-09-15T07:00:40.061Z,23.24
2016-09-15T07:01:40.743Z,22.99
2016-09-15T07:02:41.407Z,23.2
2016-09-15T07:03:42.059Z,23.15
2016-09-15T07:04:42.708Z,23.18
2016-09-15T07:05:43.383Z,22.98
2016-09-15T07:06:44.065Z,22.96
2016-09-15T07:07:44.720Z,22.98
2016-09-15T07:08:45.399Z,22.96
2016-09-15T07:09:46.067Z,22.83
2016-09-15T07:10:46.738Z,22.85
2016-09-15T07:11:47.399Z,23
2016-09-15T07:12:48.087Z,23.71
2016-09-15T07:13:48.756Z,23.98
2016-09-15T07:14:49.433Z,23.95
2016-09-15T07:15:50.099Z,23.63
2016-09-15T07:16:50.766Z,23.81
2016-09-15T07:17:51.408Z,23.58
2016-09-15T07:18:52.063Z,23.54
2016-09-15T07:19:52.718Z,23.36
2016-09-15T07:20:53.364Z,23.48
2016-09-15T07:21:54.027Z,23.73
2016-09-15T07:22:54.709Z,23.58
2016-09-15T07:23:55.374Z,23.74
2016-09-15T07:24:56.038Z,23.87
2016-09-15T07:25:56.721Z,24.18
2016-09-15T07:26:57.396Z,24.28
2016-09-15T07:27:58.060Z,24.18
2016-09-15T07:28:58.721Z,24.24
2016-09-15T07:29:59.379Z,24.13
2016-09-15T07:31:00.030Z,24.42
2016-09-15T07:32:00.719Z,24.24
2016-09-15T07:33:01.367Z,24.29
2016-09-15T07:34:02.047Z,24.2
2016-09-15T07:35:02.720Z,24.06
2016-09-15T07:36:03.380Z,24.06
2016-09-15T07:37:04.028Z,24.11
2016-09-15T07:38:04.705Z,24.1
2016-09-15T07:39:05.363Z,24.17
2016-09-15T07:40:06.021Z,24.13
2016-09-15T07:41:06.690Z,24.06
2016-09-15T07:42:07.330Z,24.13
2016-09-15T07:43:07.986Z,24.29
2016-09-15T07:44:08.670Z,23.96
2016-09-15T07:45:09.360Z,23.76
2016-09-15T07:46:10.026Z,23.91
2016-09-15T07:47:10.700Z,23.92
2016-09-15T07:48:11.366Z,24.11
2016-09-15T07:49:12.021Z,23.92
2016-09-15T07:50:12.697Z,23.66
2016-09-15T07:51:13.371Z,23.74
2016-09-15T07:52:14.038Z,23.91
2016-09-15T07:53:14.697Z,23.95
2016-09-15T07:54:15.360Z,24.24
2016-09-15T07:55:16.014Z,24.2
2016-09-15T07:56:16.677Z,24.1
2016-09-15T07:57:17.337Z,24.13
2016-09-15T07:58:17.979Z,24.16
2016-09-15T07:59:18.630Z,24.11
2016-09-15T08:00:19.299Z,24.3
2016-09-15T08:01:19.943Z,24.43
2016-09-15T08:02:20.595Z,24.55
2016-09-15T08:03:21.293Z,24.5
2016-09-15T08:04:21.955Z,24.68
2016-09-15T08:05:22.609Z,24.86
2016-09-15T08:06:23.283Z,24.77
2016-09-15T08:07:23.935Z,24.54
2016-09-15T08:08:24.586Z,24.21
2016-09-15T08:09:25.259Z,24.14
2016-09-15T08:10:25.916Z,24.21
2016-09-15T08:11:26.565Z,24.33
2016-09-15T08:12:27.234Z,24.23
2016-09-15T08:13:27.893Z,24.61
2016-09-15T08:14:28.561Z,24.92
2016-09-15T08:15:29.231Z,24.88
2016-09-15T08:16:29.891Z,24.81
2016-09-15T08:17:30.583Z,24.7
2016-09-15T08:18:31.251Z,24.53
2016-09-15T08:19:31.917Z,24.65
2016-09-15T08:20:32.590Z,24.66
2016-09-15T08:21:33.262Z,24.7
2016-09-15T08:22:33.919Z,24.73
2016-09-15T08:23:34.577Z,24.96
2016-09-15T08:24:35.236Z,25.06
2016-09-15T08:25:35.898Z,25.13
2016-09-15T08:26:36.668Z,24.88
2016-09-15T08:27:37.375Z,24.68
2016-09-15T08:28:38.167Z,24.42
2016-09-15T08:29:38.750Z,24.4
2016-09-15T08:30:39.441Z,24.5
2016-09-15T08:31:40.111Z,24.61
2016-09-15T08:32:40.764Z,24.36
2016-09-15T08:33:41.429Z,24.36
2016-09-15T08:34:42.102Z,24.51
2016-09-15T08:35:42.787Z,24.51
2016-09-15T08:36:43.450Z,24.66
2016-09-15T08:37:44.123Z,24.81
2016-09-15T08:38:44.786Z,25.07
2016-09-15T08:39:45.441Z,25.08
2016-09-15T08:40:46.093Z,24.78
2016-09-15T08:41:46.751Z,24.55
2016-09-15T08:42:47.409Z,24.53
2016-09-15T08:43:48.054Z,24.74
2016-09-15T08:44:48.713Z,24.74
2016-09-15T08:45:49.367Z,24.95
2016-09-15T08:46:50.027Z,24.92
2016-09-15T08:47:50.683Z,24.76
2016-09-15T08:48:51.345Z,24.74
2016-09-15T08:49:52.040Z,24.78
2016-09-15T08:50:52.700Z,24.85
2016-09-15T08:51:53.346Z,24.78
2016-09-15T08:52:54.025Z,24.68
2016-09-15T08:53:54.683Z,24.63
2016-09-15T08:54:55.379Z,24.66
2016-09-15T08:55:56.245Z,24.68
2016-09-15T08:56:56.990Z,24.63
2016-09-15T08:57:57.790Z,24.48
2016-09-15T08:58:58.472Z,24.33
2016-09-15T08:59:59.129Z,24.43
2016-09-15T09:00:59.786Z,24.36
2016-09-15T09:02:00.449Z,24.5
2016-09-15T09:03:01.120Z,24.68
2016-09-15T09:04:01.788Z,24.66
2016-09-15T09:05:02.441Z,24.66
2016-09-15T09:06:03.099Z,24.81
2016-09-15T09:07:03.753Z,24.92
2016-09-15T09:08:04.405Z,24.93
2016-09-15T09:09:05.057Z,24.53
2016-09-15T09:10:05.723Z,24.47
2016-09-15T09:11:06.399Z,24.36
2016-09-15T09:12:07.077Z,24.29
2016-09-15T09:13:07.741Z,24.28
2016-09-15T09:14:08.400Z,24.13
2016-09-15T09:15:09.077Z,24.21
2016-09-15T09:16:09.729Z,24.01
2016-09-15T09:17:10.375Z,23.96
2016-09-15T09:18:11.037Z,24.06
2016-09-15T09:19:11.679Z,24.05
2016-09-15T09:20:12.336Z,24.11
2016-09-15T09:21:13.009Z,24.05
2016-09-15T09:22:13.691Z,24.06
2016-09-15T09:23:14.354Z,24.2
2016-09-15T09:24:14.996Z,24.08
2016-09-15T09:25:15.662Z,24.08
2016-09-15T09:26:16.322Z,24.06
2016-09-15T09:27:16.992Z,24.05
2016-09-15T09:28:17.647Z,24.1
2016-09-15T09:29:18.293Z,24.02
2016-09-15T09:30:20.424Z,24.14
2016-09-15T09:31:19.697Z,24.06
2016-09-15T09:32:20.363Z,24.1
2016-09-15T09:33:21.074Z,24.05
2016-09-15T09:34:21.717Z,24.06
2016-09-15T09:35:22.643Z,24.1
2016-09-15T09:36:23.204Z,24.06
2016-09-15T09:37:23.868Z,24.05
2016-09-15T09:38:24.515Z,24.23
2016-09-15T09:39:25.181Z,24.16
2016-09-15T09:40:25.831Z,24.14
2016-09-15T09:41:26.476Z,24.03
2016-09-15T09:42:27.138Z,24.05
2016-09-15T09:43:27.818Z,24.18
2016-09-15T09:44:28.464Z,24.08
2016-09-15T09:45:29.193Z,24.06
2016-09-15T09:46:29.864Z,24.13
2016-09-15T09:47:30.518Z,24.13
2016-09-15T09:48:31.167Z,24.08
2016-09-15T09:49:31.823Z,24.05
2016-09-15T09:50:32.480Z,24.14
2016-09-15T09:51:33.121Z,24.1
2016-09-15T09:52:33.869Z,24.11
2016-09-15T09:53:34.460Z,24.11
2016-09-15T09:54:35.115Z,24.1
2016-09-15T09:55:35.755Z,24.14
2016-09-15T09:56:36.398Z,24.11
2016-09-15T09:57:37.048Z,24.17
2016-09-15T09:58:37.755Z,24.14
2016-09-15T09:59:38.407Z,24.11
2016-09-15T10:00:39.066Z,24.14
2016-09-15T10:01:39.701Z,24.21
2016-09-15T10:02:40.354Z,24.24
2016-09-15T10:03:41.011Z,24.16
2016-09-15T10:04:41.667Z,24.24
2016-09-15T10:05:42.327Z,24.28
2016-09-15T10:06:42.976Z,24.26
2016-09-15T10:07:43.643Z,24.3
2016-09-15T10:08:44.276Z,24.42
2016-09-15T10:09:44.920Z,24.35
2016-09-15T10:10:45.568Z,24.45
2016-09-15T10:11:46.214Z,24.45
2016-09-15T10:12:46.866Z,24.43
2016-09-15T10:13:47.524Z,24.45
2016-09-15T10:14:48.189Z,24.5
2016-09-15T10:15:48.850Z,24.5
2016-09-15T10:16:49.495Z,24.51
2016-09-15T10:17:50.133Z,24.53
2016-09-15T10:18:50.804Z,24.51
2016-09-15T10:19:51.472Z,24.58
2016-09-15T10:20:52.137Z,24.63
2016-09-15T10:21:52.813Z,24.61
2016-09-15T10:22:53.458Z,24.58
2016-09-15T10:23:54.112Z,24.65
2016-09-15T10:24:54.775Z,24.66
2016-09-15T10:25:55.417Z,24.61
2016-09-15T10:26:56.070Z,24.68
2016-09-15T10:27:56.718Z,24.68
2016-09-15T10:28:57.361Z,24.68
2016-09-15T10:29:57.992Z,24.65
2016-09-15T10:30:58.650Z,24.69
2016-09-15T10:31:59.284Z,24.6
2016-09-15T10:32:59.947Z,24.58
2016-09-15T10:34:00.586Z,24.58
2016-09-15T10:35:01.243Z,24.66
2016-09-15T10:36:01.916Z,24.66
2016-09-15T10:37:03.530Z,24.65
2016-09-15T10:38:04.189Z,24.69
2016-09-15T10:39:04.854Z,24.65
2016-09-15T10:40:05.526Z,24.63
2016-09-15T10:41:06.197Z,24.66
2016-09-15T10:42:06.870Z,24.58
2016-09-15T10:43:07.536Z,24.57
2016-09-15T10:44:08.191Z,24.53
2016-09-15T10:45:08.848Z,24.5
2016-09-15T10:46:09.512Z,24.48
2016-09-15T10:47:10.177Z,24.53
2016-09-15T10:48:10.818Z,24.57
2016-09-15T10:49:11.471Z,24.73
2016-09-15T10:50:12.119Z,24.73
2016-09-15T10:51:12.771Z,24.66
2016-09-15T10:52:13.443Z,24.73
2016-09-15T10:53:14.104Z,24.73
2016-09-15T10:54:14.797Z,24.7
2016-09-15T10:55:15.465Z,24.69
2016-09-15T10:56:16.136Z,24.77
2016-09-15T10:57:16.794Z,24.81
2016-09-15T10:58:17.426Z,24.76
2016-09-15T10:59:18.093Z,24.84
2016-09-15T11:00:18.758Z,24.81
2016-09-15T11:01:19.419Z,24.78
2016-09-15T11:02:20.123Z,24.93
2016-09-15T11:03:20.804Z,24.78
2016-09-15T11:04:21.448Z,24.81
2016-09-15T11:05:22.125Z,24.8
2016-09-15T11:06:22.765Z,24.84
2016-09-15T11:07:23.421Z,24.86
2016-09-15T11:08:24.069Z,24.84
2016-09-15T11:09:24.720Z,24.95
2016-09-15T11:10:25.393Z,24.96
2016-09-15T11:11:26.064Z,24.81
2016-09-15T11:12:26.707Z,24.92
2016-09-15T11:13:27.344Z,24.95
2016-09-15T11:14:27.994Z,24.92
2016-09-15T11:15:28.655Z,24.88
2016-09-15T11:16:29.306Z,24.93
2016-09-15T11:17:29.963Z,24.99
2016-09-15T11:18:30.615Z,24.96
2016-09-15T11:19:31.268Z,24.92
2016-09-15T11:20:31.932Z,24.95
2016-09-15T11:21:32.585Z,25.07
2016-09-15T11:22:33.220Z,24.96
2016-09-15T11:23:33.906Z,24.91
2016-09-15T11:24:34.567Z,24.85
2016-09-15T11:25:35.227Z,24.8
2016-09-15T11:26:35.870Z,24.93
2016-09-15T11:27:36.521Z,24.78
2016-09-15T11:28:37.188Z,24.92
2016-09-15T11:29:37.838Z,24.89
2016-09-15T11:30:38.487Z,24.96
2016-09-15T11:31:39.168Z,24.95
2016-09-15T11:32:39.800Z,24.99
2016-09-15T11:33:40.453Z,25.04
2016-09-15T11:34:41.106Z,25.01
2016-09-15T11:35:41.772Z,25.06
2016-09-15T11:36:42.442Z,25.07
2016-09-15T11:37:43.101Z,25.1
2016-09-15T11:38:43.761Z,25.1
2016-09-15T11:39:44.447Z,25.18
2016-09-15T11:40:45.073Z,25.11
2016-09-15T11:41:45.725Z,25.03
2016-09-15T11:42:46.375Z,25.03
2016-09-15T11:43:47.037Z,25.04
2016-09-15T11:44:47.688Z,25.03
2016-09-15T11:45:48.328Z,25.18
2016-09-15T11:46:48.995Z,25.22
2016-09-15T11:47:49.673Z,25.17
2016-09-15T11:48:50.327Z,25.13
2016-09-15T11:49:50.971Z,25.22
2016-09-15T11:50:51.629Z,25.08
2016-09-15T11:51:52.270Z,25.16
2016-09-15T11:52:52.933Z,25.16
2016-09-15T11:53:53.579Z,25.11
2016-09-15T11:54:54.229Z,25.1
2016-09-15T11:55:54.881Z,25.17
2016-09-15T11:56:55.527Z,25.18
2016-09-15T11:57:56.179Z,25.16
2016-09-15T11:58:56.840Z,25.22
2016-09-15T11:59:57.547Z,25.21
2016-09-15T12:00:58.203Z,25.25
2016-09-15T12:01:58.856Z,25.26
2016-09-15T12:02:59.508Z,25.23
2016-09-15T12:04:00.174Z,25.22
2016-09-15T12:05:00.844Z,25.25
2016-09-15T12:06:01.517Z,25.23
2016-09-15T12:07:02.181Z,25.23
2016-09-15T12:08:02.853Z,25.29
2016-09-15T12:09:03.514Z,25.26
2016-09-15T12:10:04.153Z,25.35
2016-09-15T12:11:04.796Z,25.28
2016-09-15T12:12:05.441Z,25.36
2016-09-15T12:13:06.079Z,25.33
2016-09-15T12:14:06.740Z,25.26
2016-09-15T12:15:07.370Z,25.25
2016-09-15T12:16:08.027Z,25.32
2016-09-15T12:17:08.695Z,25.36
2016-09-15T12:18:09.367Z,25.44
2016-09-15T12:19:10.011Z,25.4
2016-09-15T12:20:10.671Z,25.43
2016-09-15T12:21:11.327Z,25.48
2016-09-15T12:22:11.981Z,25.46
2016-09-15T12:23:12.628Z,25.43
2016-09-15T12:24:13.289Z,25.36
2016-09-15T12:25:13.949Z,25.38
2016-09-15T12:26:14.605Z,25.32
2016-09-15T12:27:15.272Z,25.28
2016-09-15T12:28:15.912Z,25.43
2016-09-15T12:29:16.574Z,25.41
2016-09-15T12:30:17.248Z,25.35
2016-09-15T12:31:17.881Z,25.32
2016-09-15T12:32:18.531Z,25.36
2016-09-15T12:33:19.194Z,25.31
2016-09-15T12:34:19.836Z,25.41
2016-09-15T12:35:20.513Z,25.36
2016-09-15T12:36:21.168Z,25.33
2016-09-15T12:37:21.833Z,25.38
2016-09-15T12:38:22.507Z,25.35
2016-09-15T12:39:23.152Z,25.36
2016-09-15T12:40:23.794Z,25.35
2016-09-15T12:41:24.442Z,25.41
2016-09-15T12:42:25.093Z,25.55
2016-09-15T12:43:25.747Z,25.51
2016-09-15T12:44:26.407Z,25.58
2016-09-15T12:45:27.040Z,25.51
2016-09-15T12:46:27.686Z,25.55
2016-09-15T12:47:28.323Z,25.53
2016-09-15T12:48:29.000Z,25.48
2016-09-15T12:49:29.654Z,25.54
2016-09-15T12:50:30.311Z,25.47
2016-09-15T12:51:30.957Z,25.46
2016-09-15T12:52:31.623Z,25.51
2016-09-15T12:53:32.287Z,25.51
2016-09-15T12:54:32.932Z,25.46
2016-09-15T12:55:33.590Z,25.54
2016-09-15T12:56:34.231Z,25.6
2016-09-15T12:57:34.869Z,25.63
2016-09-15T12:58:35.500Z,25.69
2016-09-15T12:59:36.165Z,25.72
2016-09-15T13:00:36.809Z,25.75
2016-09-15T13:01:37.450Z,25.66
2016-09-15T13:02:38.101Z,25.7
2016-09-15T13:03:38.735Z,25.75
2016-09-15T13:04:39.428Z,25.85
2016-09-15T13:05:40.102Z,25.93
2016-09-15T13:06:40.757Z,25.87
2016-09-15T13:07:41.419Z,25.96
2016-09-15T13:08:42.080Z,25.91
2016-09-15T13:09:42.741Z,25.77
2016-09-15T13:10:43.383Z,25.72
2016-09-15T13:11:44.034Z,25.7
2016-09-15T13:12:44.680Z,25.7
2016-09-15T13:13:45.342Z,25.55
2016-09-15T13:14:45.996Z,25.58
2016-09-15T13:15:46.653Z,25.53
2016-09-15T13:16:47.320Z,25.62
2016-09-15T13:17:47.981Z,25.66
2016-09-15T13:18:48.618Z,25.59
2016-09-15T13:19:49.255Z,25.66
2016-09-15T13:20:49.908Z,25.69
2016-09-15T13:21:50.572Z,25.66
2016-09-15T13:22:51.226Z,25.65
2016-09-15T13:23:51.886Z,25.69
2016-09-15T13:24:52.542Z,25.7
2016-09-15T13:25:53.181Z,25.69
2016-09-15T13:26:53.837Z,25.66
2016-09-15T13:27:54.475Z,25.75
2016-09-15T13:28:55.124Z,25.68
2016-09-15T13:29:55.755Z,25.63
2016-09-15T13:30:56.398Z,25.73
2016-09-15T13:31:57.057Z,25.68
2016-09-15T13:32:57.727Z,25.72
2016-09-15T13:33:58.366Z,25.68
2016-09-15T13:34:59.014Z,25.7
2016-09-15T13:35:59.653Z,25.69
2016-09-15T13:37:00.296Z,25.68
2016-09-15T13:38:00.958Z,25.7
2016-09-15T13:39:01.593Z,25.69
2016-09-15T13:40:02.233Z,25.63
2016-09-15T13:41:02.888Z,25.65
2016-09-15T13:42:03.553Z,25.75
2016-09-15T13:43:04.191Z,25.73
2016-09-15T13:44:04.856Z,25.68
2016-09-15T13:45:05.520Z,25.73
2016-09-15T13:46:06.188Z,25.66
2016-09-15T13:47:06.824Z,25.68
2016-09-15T13:48:07.454Z,25.7
2016-09-15T13:49:08.126Z,25.83
2016-09-15T13:50:08.774Z,25.81
2016-09-15T13:51:09.425Z,25.72
2016-09-15T13:52:10.077Z,25.84
2016-09-15T13:53:10.769Z,25.8
2016-09-15T13:54:11.423Z,25.7
2016-09-15T13:55:12.083Z,25.7
2016-09-15T13:56:12.735Z,25.72
2016-09-15T13:57:13.387Z,25.7
2016-09-15T13:58:14.049Z,25.81
2016-09-15T13:59:14.711Z,25.8
2016-09-15T14:00:15.364Z,25.73
2016-09-15T14:01:16.024Z,25.72
2016-09-15T14:02:16.661Z,25.68
2016-09-15T14:03:17.306Z,25.69
2016-09-15T14:04:17.995Z,25.68
2016-09-15T14:05:18.652Z,25.72
2016-09-15T14:06:19.294Z,25.75
2016-09-15T14:07:19.928Z,25.72
2016-09-15T14:08:20.579Z,25.83
2016-09-15T14:09:21.250Z,25.85
2016-09-15T14:10:21.894Z,25.9
2016-09-15T14:11:22.544Z,25.9
2016-09-15T14:12:23.200Z,25.9
2016-09-15T14:13:23.836Z,25.85
2016-09-15T14:14:24.501Z,25.84
2016-09-15T14:15:25.138Z,25.78
2016-09-15T14:16:25.797Z,25.81
2016-09-15T14:17:26.466Z,25.8
2016-09-15T14:18:27.100Z,25.85
2016-09-15T14:19:27.774Z,25.78
2016-09-15T14:20:28.424Z,25.87
2016-09-15T14:21:29.072Z,25.75
2016-09-15T14:22:29.723Z,25.78
2016-09-15T14:23:30.365Z,25.75
2016-09-15T14:24:31.023Z,25.75
2016-09-15T14:25:31.681Z,25.7
2016-09-15T14:26:32.321Z,25.78
2016-09-15T14:27:32.999Z,25.84
2016-09-15T14:28:33.667Z,25.78
2016-09-15T14:29:34.365Z,25.78
2016-09-15T14:30:35.070Z,25.77
2016-09-15T14:31:35.734Z,25.83
2016-09-15T14:32:36.394Z,25.7
2016-09-15T14:33:37.074Z,25.73
2016-09-15T14:34:37.736Z,25.62
2016-09-15T14:35:38.398Z,25.72
2016-09-15T14:36:39.042Z,25.69
2016-09-15T14:37:39.722Z,25.73
2016-09-15T14:38:40.388Z,25.69
2016-09-15T14:39:41.028Z,25.69
2016-09-15T14:40:41.687Z,25.68
2016-09-15T14:41:42.330Z,25.75
2016-09-15T14:42:42.978Z,25.81
2016-09-15T14:43:43.627Z,25.7
2016-09-15T14:44:44.282Z,25.7
2016-09-15T14:45:44.940Z,25.75
2016-09-15T14:46:45.591Z,25.78
2016-09-15T14:47:46.234Z,25.72
2016-09-15T14:48:46.877Z,25.75
2016-09-15T14:49:47.524Z,25.8
2016-09-15T14:50:48.164Z,25.73
2016-09-15T14:51:48.822Z,25.73
2016-09-15T14:52:49.465Z,25.73
2016-09-15T14:53:50.121Z,25.77
2016-09-15T14:54:50.776Z,25.78
2016-09-15T14:55:51.458Z,25.72
2016-09-15T14:56:52.166Z,25.72
2016-09-15T14:57:52.827Z,25.7
2016-09-15T14:58:53.480Z,25.7
2016-09-15T14:59:54.098Z,25.7
2016-09-15T15:00:54.743Z,25.73
2016-09-15T15:01:55.391Z,25.65
2016-09-15T15:02:56.082Z,25.68
2016-09-15T15:03:56.754Z,25.58
2016-09-15T15:04:57.413Z,25.55
2016-09-15T15:05:58.053Z,25.53
2016-09-15T15:06:58.715Z,25.59
2016-09-15T15:07:59.393Z,25.63
2016-09-15T15:09:00.129Z,25.59
2016-09-15T15:10:00.788Z,25.58
2016-09-15T15:11:01.435Z,25.48
2016-09-15T15:12:02.078Z,25.6
2016-09-15T15:13:02.760Z,25.51
2016-09-15T15:14:03.471Z,25.63
2016-09-15T15:15:04.130Z,25.53
2016-09-15T15:16:04.780Z,25.66
2016-09-15T15:17:05.486Z,25.63
2016-09-15T15:18:06.174Z,25.58
2016-09-15T15:19:06.856Z,25.58
2016-09-15T15:20:07.528Z,25.59
2016-09-15T15:21:08.196Z,25.55
2016-09-15T15:22:08.907Z,25.5
2016-09-15T15:23:09.749Z,25.53
2016-09-15T15:24:10.245Z,25.54
2016-09-15T15:25:10.921Z,25.55
2016-09-15T15:26:11.602Z,25.54
2016-09-15T15:27:12.271Z,25.55
2016-09-15T15:28:12.948Z,25.58
2016-09-15T15:29:13.607Z,25.55
2016-09-15T15:30:14.453Z,25.58
2016-09-15T15:31:15.139Z,25.58
2016-09-15T15:32:15.826Z,25.59
2016-09-15T15:33:16.506Z,25.54
2016-09-15T15:34:17.303Z,25.55
2016-09-15T15:35:18.051Z,25.55
2016-09-15T15:36:18.739Z,25.55
2016-09-15T15:37:19.409Z,25.58
2016-09-15T15:38:20.822Z,25.59
2016-09-15T15:39:21.466Z,25.54
2016-09-15T15:40:22.595Z,25.55
2016-09-15T15:41:23.272Z,25.54
2016-09-15T15:42:24.496Z,25.58
2016-09-15T15:43:25.604Z,25.51
2016-09-15T15:44:26.935Z,25.58
2016-09-15T15:45:27.605Z,25.54
2016-09-15T15:46:28.271Z,25.6
2016-09-15T15:47:28.964Z,25.54
2016-09-15T15:48:29.662Z,25.53
2016-09-15T15:49:30.305Z,25.62
2016-09-15T15:50:30.945Z,25.43
2016-09-15T15:51:31.586Z,25.51
2016-09-15T15:52:32.251Z,25.53
2016-09-15T15:53:32.905Z,25.41
2016-09-15T15:54:33.556Z,25.46
2016-09-15T15:55:34.212Z,25.41
2016-09-15T15:56:34.887Z,25.41
2016-09-15T15:57:35.539Z,25.46
2016-09-15T15:58:36.198Z,25.36
2016-09-15T15:59:36.862Z,25.32
2016-09-15T16:00:37.522Z,25.36
2016-09-15T16:01:38.182Z,25.31
2016-09-15T16:02:38.843Z,25.33
2016-09-15T16:03:39.488Z,25.35
2016-09-15T16:04:40.159Z,25.35
2016-09-15T16:05:40.812Z,25.35
2016-09-15T16:06:41.454Z,25.33
2016-09-15T16:07:42.100Z,25.33
2016-09-15T16:08:42.745Z,25.23
2016-09-15T16:09:43.410Z,25.25
2016-09-15T16:10:44.054Z,25.33
2016-09-15T16:11:45.550Z,25.25
2016-09-15T16:12:46.207Z,25.25
2016-09-15T16:13:46.890Z,25.25
2016-09-15T16:14:47.581Z,25.21
2016-09-15T16:15:48.245Z,25.22
2016-09-15T16:16:48.881Z,25.17
2016-09-15T16:17:49.536Z,25.21
2016-09-15T16:18:50.378Z,25.14
2016-09-15T16:19:51.053Z,25.17
2016-09-15T16:20:51.695Z,25.17
2016-09-15T16:21:52.338Z,25.18
2016-09-15T16:22:53.055Z,25.22
2016-09-15T16:23:53.738Z,25.16
2016-09-15T16:24:54.398Z,25.21
2016-09-15T16:25:55.079Z,25.13
2016-09-15T16:26:55.729Z,25.13
2016-09-15T16:27:56.412Z,25.13
2016-09-15T16:28:57.058Z,25.17
2016-09-15T16:29:57.701Z,25.14
2016-09-15T16:30:58.362Z,25.08
2016-09-15T16:31:59.009Z,25.1
2016-09-15T16:32:59.659Z,25.1
2016-09-15T16:34:00.323Z,25.06
2016-09-15T16:35:00.966Z,25.04
2016-09-15T16:36:01.638Z,24.98
2016-09-15T16:37:02.285Z,25.08
2016-09-15T16:38:02.911Z,25.03
2016-09-15T16:39:03.565Z,25.01
2016-09-15T16:40:04.242Z,24.99
2016-09-15T16:41:04.920Z,24.98
2016-09-15T16:42:05.569Z,24.92
2016-09-15T16:43:06.205Z,24.93
2016-09-15T16:44:06.879Z,24.92
2016-09-15T16:45:07.534Z,24.92
2016-09-15T16:46:08.193Z,24.89
2016-09-15T16:47:08.835Z,24.81
2016-09-15T16:48:09.477Z,24.81
2016-09-15T16:49:10.140Z,24.85
2016-09-15T16:50:10.810Z,24.86
2016-09-15T16:51:11.467Z,24.84
2016-09-15T16:52:12.145Z,24.81
2016-09-15T16:53:12.795Z,24.8
2016-09-15T16:54:13.447Z,24.8
2016-09-15T16:55:14.089Z,24.77
2016-09-15T16:56:14.740Z,24.78
2016-09-15T16:57:15.417Z,24.65
2016-09-15T16:58:16.068Z,24.68
2016-09-15T16:59:16.710Z,24.69
2016-09-15T17:00:17.391Z,24.68
2016-09-15T17:01:18.080Z,24.65
2016-09-15T17:02:18.745Z,24.65
2016-09-15T17:03:19.396Z,24.6
2016-09-15T17:04:20.044Z,24.61
2016-09-15T17:05:20.689Z,24.57
2016-09-15T17:06:21.344Z,24.55
2016-09-15T17:07:22.040Z,24.53
2016-09-15T17:08:22.738Z,24.48
2016-09-15T17:09:23.382Z,24.43
2016-09-15T17:10:24.038Z,24.43
2016-09-15T17:11:24.725Z,24.47
2016-09-15T17:12:25.380Z,24.38
2016-09-15T17:13:26.048Z,24.4
2016-09-15T17:14:26.724Z,24.36
2016-09-15T17:15:27.393Z,24.28
2016-09-15T17:16:28.062Z,24.08
2016-09-15T17:17:28.705Z,24.14
2016-09-15T17:18:29.364Z,24.11
2016-09-15T17:19:30.027Z,24.03
2016-09-15T17:20:30.673Z,23.99
2016-09-15T17:21:31.324Z,23.95
2016-09-15T17:22:32.080Z,23.92